Observations

82 °F / 27.8 °C
NE at 9 MPH
88%
78°F / 25.6 °C
29.83" (1010 mb)
10 mile(s)
partly cloudy
2024.05.22 0900 UTC

Observations

Surface


Raw METARs

2024/05/22 09:00
PKWA 220900Z AUTO 05008KT 10SM SCT016 SCT045 28/26 A2983 RMK AO2 TSNO

Translated METAR

Kwajalein, Bucholz AAF, Kwajalein KMR ATOL Airport, Marshall Islands (PKWA) 08-43N 167-44E 2M
May 22, 2024 - 05:00 AM EDT / 2024.05.22 0900 UTC
Wind: from the NE (050 degrees) at 9 MPH (8 KT):0
Visibility: 10 mile(s):0
Sky conditions: partly cloudy
Temperature: 82 F (28 C)
Dew Point: 78 F (26 C)
Relative Humidity: 88%
Pressure (altimeter): 29.83 in. Hg (1010 hPa)
ob: PKWA 220900Z AUTO 05008KT 10SM SCT016 SCT045 28/26 A2983 RMK AO2 TSNO
cycle: 9



Upper Air


Latest Skew-T

Skew T Diagram

Latest Data File